sensor_id;sensor_type;location;lat;lon;timestamp;P1;durP1;ratioP1;P2;durP2;ratioP2
65936;SDS011;52707;52.086;5.418;2023-05-02T00:01:17;43.17;;;24.08;;
65936;SDS011;52707;52.086;5.418;2023-05-02T00:03:44;44.50;;;24.73;;
65936;SDS011;52707;52.086;5.418;2023-05-02T00:06:10;41.55;;;23.65;;
65936;SDS011;52707;52.086;5.418;2023-05-02T00:08:37;41.80;;;22.83;;
65936;SDS011;52707;52.086;5.418;2023-05-02T00:11:03;47.03;;;23.48;;
65936;SDS011;52707;52.086;5.418;2023-05-02T00:13:30;36.15;;;22.05;;
65936;SDS011;52707;52.086;5.418;2023-05-02T00:15:56;40.95;;;22.95;;
65936;SDS011;52707;52.086;5.418;2023-05-02T00:18:23;41.58;;;21.88;;
65936;SDS011;52707;52.086;5.418;2023-05-02T00:20:49;41.35;;;22.20;;
65936;SDS011;52707;52.086;5.418;2023-05-02T00:23:16;42.13;;;22.55;;
65936;SDS011;52707;52.086;5.418;2023-05-02T00:25:45;41.55;;;21.20;;
65936;SDS011;52707;52.086;5.418;2023-05-02T00:28:11;41.20;;;22.15;;
65936;SDS011;52707;52.086;5.418;2023-05-02T00:30:42;39.85;;;21.08;;
65936;SDS011;52707;52.086;5.418;2023-05-02T00:33:09;34.90;;;20.25;;
65936;SDS011;52707;52.086;5.418;2023-05-02T00:35:37;40.05;;;19.10;;
65936;SDS011;52707;52.086;5.418;2023-05-02T00:38:03;37.97;;;19.52;;
65936;SDS011;52707;52.086;5.418;2023-05-02T00:40:31;36.35;;;19.00;;
65936;SDS011;52707;52.086;5.418;2023-05-02T00:42:57;35.10;;;20.05;;
65936;SDS011;52707;52.086;5.418;2023-05-02T00:45:23;34.17;;;18.75;;
65936;SDS011;52707;52.086;5.418;2023-05-02T00:47:50;31.52;;;18.30;;
65936;SDS011;52707;52.086;5.418;2023-05-02T00:50:16;29.05;;;16.50;;
65936;SDS011;52707;52.086;5.418;2023-05-02T00:52:42;32.00;;;16.40;;
65936;SDS011;52707;52.086;5.418;2023-05-02T00:55:09;29.10;;;15.10;;
65936;SDS011;52707;52.086;5.418;2023-05-02T00:57:35;24.10;;;14.63;;
65936;SDS011;52707;52.086;5.418;2023-05-02T01:00:02;23.55;;;12.45;;
65936;SDS011;52707;52.086;5.418;2023-05-02T01:02:47;24.95;;;11.10;;
65936;SDS011;52707;52.086;5.418;2023-05-02T01:05:16;22.05;;;11.15;;
65936;SDS011;52707;52.086;5.418;2023-05-02T01:10:21;20.25;;;9.60;;
65936;SDS011;52707;52.086;5.418;2023-05-02T01:15:21;17.35;;;8.65;;
65936;SDS011;52707;52.086;5.418;2023-05-02T01:17:47;22.55;;;9.40;;
65936;SDS011;52707;52.086;5.418;2023-05-02T01:20:19;14.77;;;7.47;;
65936;SDS011;52707;52.086;5.418;2023-05-02T01:22:46;15.15;;;7.00;;
65936;SDS011;52707;52.086;5.418;2023-05-02T01:27:46;11.45;;;6.38;;
65936;SDS011;52707;52.086;5.418;2023-05-02T01:30:16;13.35;;;5.15;;
65936;SDS011;52707;52.086;5.418;2023-05-02T01:32:44;15.85;;;4.32;;
65936;SDS011;52707;52.086;5.418;2023-05-02T01:35:11;10.25;;;3.65;;
65936;SDS011;52707;52.086;5.418;2023-05-02T01:37:39;8.45;;;2.75;;
65936;SDS011;52707;52.086;5.418;2023-05-02T01:40:06;7.43;;;2.70;;
65936;SDS011;52707;52.086;5.418;2023-05-02T01:42:34;14.27;;;3.00;;
65936;SDS011;52707;52.086;5.418;2023-05-02T01:45:02;6.72;;;2.53;;
65936;SDS011;52707;52.086;5.418;2023-05-02T01:47:29;16.10;;;2.90;;
65936;SDS011;52707;52.086;5.418;2023-05-02T01:49:58;7.95;;;2.15;;
65936;SDS011;52707;52.086;5.418;2023-05-02T01:52:25;8.35;;;2.63;;
65936;SDS011;52707;52.086;5.418;2023-05-02T01:54:52;9.00;;;1.98;;
65936;SDS011;52707;52.086;5.418;2023-05-02T01:57:18;12.00;;;2.40;;
65936;SDS011;52707;52.086;5.418;2023-05-02T01:59:45;9.45;;;2.33;;
65936;SDS011;52707;52.086;5.418;2023-05-02T02:02:12;9.82;;;2.83;;
65936;SDS011;52707;52.086;5.418;2023-05-02T02:04:39;18.40;;;4.00;;
65936;SDS011;52707;52.086;5.418;2023-05-02T02:07:06;19.73;;;3.25;;
65936;SDS011;52707;52.086;5.418;2023-05-02T02:09:33;14.57;;;2.80;;
65936;SDS011;52707;52.086;5.418;2023-05-02T02:12:07;16.83;;;2.95;;
65936;SDS011;52707;52.086;5.418;2023-05-02T02:14:37;22.73;;;4.03;;
65936;SDS011;52707;52.086;5.418;2023-05-02T02:17:05;27.42;;;3.70;;
65936;SDS011;52707;52.086;5.418;2023-05-02T02:19:35;12.65;;;3.00;;
65936;SDS011;52707;52.086;5.418;2023-05-02T02:22:02;12.40;;;2.60;;
65936;SDS011;52707;52.086;5.418;2023-05-02T02:24:30;10.68;;;2.83;;
65936;SDS011;52707;52.086;5.418;2023-05-02T02:26:57;22.25;;;3.60;;
65936;SDS011;52707;52.086;5.418;2023-05-02T02:29:24;19.67;;;3.30;;
65936;SDS011;52707;52.086;5.418;2023-05-02T02:31:50;14.32;;;3.10;;
65936;SDS011;52707;52.086;5.418;2023-05-02T02:34:16;15.38;;;2.63;;
65936;SDS011;52707;52.086;5.418;2023-05-02T02:36:44;10.25;;;2.67;;
65936;SDS011;52707;52.086;5.418;2023-05-02T02:39:16;9.35;;;2.10;;
65936;SDS011;52707;52.086;5.418;2023-05-02T02:41:59;11.85;;;2.20;;
65936;SDS011;52707;52.086;5.418;2023-05-02T02:44:31;12.98;;;2.55;;
65936;SDS011;52707;52.086;5.418;2023-05-02T02:47:02;5.72;;;1.90;;
65936;SDS011;52707;52.086;5.418;2023-05-02T02:49:34;8.30;;;2.05;;
65936;SDS011;52707;52.086;5.418;2023-05-02T02:54:38;11.05;;;1.70;;
65936;SDS011;52707;52.086;5.418;2023-05-02T02:57:13;8.20;;;1.80;;
65936;SDS011;52707;52.086;5.418;2023-05-02T02:59:41;7.65;;;1.63;;
65936;SDS011;52707;52.086;5.418;2023-05-02T03:02:11;11.10;;;1.83;;
65936;SDS011;52707;52.086;5.418;2023-05-02T03:04:39;10.10;;;1.90;;
65936;SDS011;52707;52.086;5.418;2023-05-02T03:07:07;9.60;;;1.77;;
65936;SDS011;52707;52.086;5.418;2023-05-02T03:09:39;11.35;;;1.85;;
65936;SDS011;52707;52.086;5.418;2023-05-02T03:12:06;13.10;;;2.17;;
65936;SDS011;52707;52.086;5.418;2023-05-02T03:14:32;11.80;;;2.30;;
65936;SDS011;52707;52.086;5.418;2023-05-02T03:16:58;10.05;;;1.70;;
65936;SDS011;52707;52.086;5.418;2023-05-02T03:19:25;11.25;;;2.13;;
65936;SDS011;52707;52.086;5.418;2023-05-02T03:21:51;8.27;;;1.85;;
65936;SDS011;52707;52.086;5.418;2023-05-02T03:24:17;12.07;;;1.80;;
65936;SDS011;52707;52.086;5.418;2023-05-02T03:26:44;5.10;;;1.48;;
65936;SDS011;52707;52.086;5.418;2023-05-02T03:29:13;7.15;;;1.77;;
65936;SDS011;52707;52.086;5.418;2023-05-02T03:31:39;7.30;;;1.63;;
65936;SDS011;52707;52.086;5.418;2023-05-02T03:34:05;10.60;;;1.80;;
65936;SDS011;52707;52.086;5.418;2023-05-02T03:36:32;7.82;;;1.35;;
65936;SDS011;52707;52.086;5.418;2023-05-02T03:38:58;12.77;;;3.25;;
65936;SDS011;52707;52.086;5.418;2023-05-02T03:41:24;6.10;;;1.63;;
65936;SDS011;52707;52.086;5.418;2023-05-02T03:43:51;7.28;;;1.77;;
65936;SDS011;52707;52.086;5.418;2023-05-02T03:46:17;13.05;;;2.13;;
65936;SDS011;52707;52.086;5.418;2023-05-02T03:48:43;11.95;;;1.67;;
65936;SDS011;52707;52.086;5.418;2023-05-02T03:51:11;12.57;;;2.13;;
65936;SDS011;52707;52.086;5.418;2023-05-02T03:53:38;11.73;;;2.08;;
65936;SDS011;52707;52.086;5.418;2023-05-02T03:56:04;10.90;;;1.95;;
65936;SDS011;52707;52.086;5.418;2023-05-02T03:58:33;11.00;;;1.92;;
65936;SDS011;52707;52.086;5.418;2023-05-02T04:01:01;12.30;;;2.22;;
65936;SDS011;52707;52.086;5.418;2023-05-02T04:03:27;8.32;;;1.80;;
65936;SDS011;52707;52.086;5.418;2023-05-02T04:05:55;6.72;;;2.22;;
65936;SDS011;52707;52.086;5.418;2023-05-02T04:08:21;9.43;;;2.25;;
65936;SDS011;52707;52.086;5.418;2023-05-02T04:10:49;9.75;;;2.22;;
65936;SDS011;52707;52.086;5.418;2023-05-02T04:13:16;12.55;;;2.63;;
65936;SDS011;52707;52.086;5.418;2023-05-02T04:15:43;8.75;;;1.83;;
65936;SDS011;52707;52.086;5.418;2023-05-02T04:18:10;17.27;;;2.78;;
65936;SDS011;52707;52.086;5.418;2023-05-02T04:20:36;8.45;;;1.75;;
65936;SDS011;52707;52.086;5.418;2023-05-02T04:23:02;12.95;;;2.35;;
65936;SDS011;52707;52.086;5.418;2023-05-02T04:25:29;13.77;;;2.10;;
65936;SDS011;52707;52.086;5.418;2023-05-02T04:27:55;17.50;;;2.22;;
65936;SDS011;52707;52.086;5.418;2023-05-02T04:30:22;10.70;;;2.65;;
65936;SDS011;52707;52.086;5.418;2023-05-02T04:32:49;15.32;;;2.97;;
65936;SDS011;52707;52.086;5.418;2023-05-02T04:35:16;17.50;;;2.47;;
65936;SDS011;52707;52.086;5.418;2023-05-02T04:37:42;10.00;;;1.63;;
65936;SDS011;52707;52.086;5.418;2023-05-02T04:40:09;10.25;;;2.60;;
65936;SDS011;52707;52.086;5.418;2023-05-02T04:42:36;12.52;;;2.53;;
65936;SDS011;52707;52.086;5.418;2023-05-02T04:45:03;16.48;;;2.92;;
65936;SDS011;52707;52.086;5.418;2023-05-02T04:47:29;14.18;;;2.03;;
65936;SDS011;52707;52.086;5.418;2023-05-02T04:49:56;11.07;;;2.00;;
65936;SDS011;52707;52.086;5.418;2023-05-02T04:52:23;11.63;;;2.10;;
65936;SDS011;52707;52.086;5.418;2023-05-02T04:54:49;12.82;;;2.88;;
65936;SDS011;52707;52.086;5.418;2023-05-02T04:57:16;7.95;;;2.25;;
65936;SDS011;52707;52.086;5.418;2023-05-02T04:59:42;13.52;;;2.70;;
65936;SDS011;52707;52.086;5.418;2023-05-02T05:02:08;19.73;;;2.95;;
65936;SDS011;52707;52.086;5.418;2023-05-02T05:04:38;14.40;;;2.45;;
65936;SDS011;52707;52.086;5.418;2023-05-02T05:07:04;16.30;;;3.08;;
65936;SDS011;52707;52.086;5.418;2023-05-02T05:09:30;16.48;;;2.97;;
65936;SDS011;52707;52.086;5.418;2023-05-02T05:11:57;11.63;;;3.05;;
65936;SDS011;52707;52.086;5.418;2023-05-02T05:14:23;12.73;;;3.03;;
65936;SDS011;52707;52.086;5.418;2023-05-02T05:16:49;15.65;;;3.00;;
65936;SDS011;52707;52.086;5.418;2023-05-02T05:19:16;18.38;;;3.08;;
65936;SDS011;52707;52.086;5.418;2023-05-02T05:21:42;18.27;;;3.25;;
65936;SDS011;52707;52.086;5.418;2023-05-02T05:24:08;14.93;;;2.78;;
65936;SDS011;52707;52.086;5.418;2023-05-02T05:26:35;17.65;;;3.28;;
65936;SDS011;52707;52.086;5.418;2023-05-02T05:29:01;16.75;;;3.25;;
65936;SDS011;52707;52.086;5.418;2023-05-02T05:31:27;22.67;;;2.90;;
65936;SDS011;52707;52.086;5.418;2023-05-02T05:33:54;13.00;;;3.08;;
65936;SDS011;52707;52.086;5.418;2023-05-02T05:36:20;17.85;;;2.95;;
65936;SDS011;52707;52.086;5.418;2023-05-02T05:38:49;17.55;;;3.50;;
65936;SDS011;52707;52.086;5.418;2023-05-02T05:41:15;15.57;;;3.10;;
65936;SDS011;52707;52.086;5.418;2023-05-02T05:43:42;20.20;;;3.40;;
65936;SDS011;52707;52.086;5.418;2023-05-02T05:46:08;22.75;;;3.30;;
65936;SDS011;52707;52.086;5.418;2023-05-02T05:48:34;16.33;;;3.22;;
65936;SDS011;52707;52.086;5.418;2023-05-02T05:51:04;16.80;;;3.65;;
65936;SDS011;52707;52.086;5.418;2023-05-02T05:53:30;20.83;;;2.80;;
65936;SDS011;52707;52.086;5.418;2023-05-02T05:55:57;16.10;;;3.30;;
65936;SDS011;52707;52.086;5.418;2023-05-02T05:58:24;13.82;;;2.88;;
65936;SDS011;52707;52.086;5.418;2023-05-02T06:00:50;20.95;;;5.22;;
65936;SDS011;52707;52.086;5.418;2023-05-02T06:03:17;21.50;;;3.65;;
65936;SDS011;52707;52.086;5.418;2023-05-02T06:05:43;22.42;;;3.33;;
65936;SDS011;52707;52.086;5.418;2023-05-02T06:08:10;9.88;;;2.38;;
65936;SDS011;52707;52.086;5.418;2023-05-02T06:10:36;16.60;;;3.22;;
65936;SDS011;52707;52.086;5.418;2023-05-02T06:13:02;18.45;;;3.83;;
65936;SDS011;52707;52.086;5.418;2023-05-02T06:15:29;15.77;;;3.80;;
65936;SDS011;52707;52.086;5.418;2023-05-02T06:17:58;16.98;;;3.70;;
65936;SDS011;52707;52.086;5.418;2023-05-02T06:20:24;14.98;;;3.45;;
65936;SDS011;52707;52.086;5.418;2023-05-02T06:22:51;18.02;;;3.97;;
65936;SDS011;52707;52.086;5.418;2023-05-02T06:25:17;21.05;;;4.15;;
65936;SDS011;52707;52.086;5.418;2023-05-02T06:27:43;26.55;;;4.68;;
65936;SDS011;52707;52.086;5.418;2023-05-02T06:30:10;25.60;;;3.78;;
65936;SDS011;52707;52.086;5.418;2023-05-02T06:32:36;20.23;;;3.33;;
65936;SDS011;52707;52.086;5.418;2023-05-02T06:35:02;16.52;;;4.00;;
65936;SDS011;52707;52.086;5.418;2023-05-02T06:37:32;13.25;;;3.35;;
65936;SDS011;52707;52.086;5.418;2023-05-02T06:40:00;12.43;;;3.25;;
65936;SDS011;52707;52.086;5.418;2023-05-02T06:42:26;15.30;;;3.42;;
65936;SDS011;52707;52.086;5.418;2023-05-02T06:44:53;13.40;;;3.28;;
65936;SDS011;52707;52.086;5.418;2023-05-02T06:47:20;14.30;;;3.10;;
65936;SDS011;52707;52.086;5.418;2023-05-02T06:49:47;14.25;;;3.05;;
65936;SDS011;52707;52.086;5.418;2023-05-02T06:52:13;20.60;;;2.63;;
65936;SDS011;52707;52.086;5.418;2023-05-02T06:54:39;13.55;;;2.53;;
65936;SDS011;52707;52.086;5.418;2023-05-02T06:57:07;12.73;;;2.67;;
65936;SDS011;52707;52.086;5.418;2023-05-02T06:59:33;14.05;;;2.83;;
65936;SDS011;52707;52.086;5.418;2023-05-02T07:02:00;17.05;;;2.20;;
65936;SDS011;52707;52.086;5.418;2023-05-02T07:04:30;8.52;;;2.33;;
65936;SDS011;52707;52.086;5.418;2023-05-02T07:06:56;12.90;;;2.50;;
65936;SDS011;52707;52.086;5.418;2023-05-02T07:09:22;10.07;;;2.60;;
65936;SDS011;52707;52.086;5.418;2023-05-02T07:11:49;17.70;;;2.88;;
65936;SDS011;52707;52.086;5.418;2023-05-02T07:14:15;12.30;;;2.60;;
65936;SDS011;52707;52.086;5.418;2023-05-02T07:16:41;15.95;;;2.70;;
65936;SDS011;52707;52.086;5.418;2023-05-02T07:19:07;11.82;;;2.88;;
65936;SDS011;52707;52.086;5.418;2023-05-02T07:21:34;12.02;;;3.15;;
65936;SDS011;52707;52.086;5.418;2023-05-02T07:24:00;16.70;;;2.70;;
65936;SDS011;52707;52.086;5.418;2023-05-02T07:26:26;16.77;;;2.33;;
65936;SDS011;52707;52.086;5.418;2023-05-02T07:28:53;23.52;;;3.40;;
65936;SDS011;52707;52.086;5.418;2023-05-02T07:31:19;19.95;;;3.10;;
65936;SDS011;52707;52.086;5.418;2023-05-02T07:33:46;26.30;;;3.22;;
65936;SDS011;52707;52.086;5.418;2023-05-02T07:36:12;10.00;;;2.28;;
65936;SDS011;52707;52.086;5.418;2023-05-02T07:38:38;10.90;;;2.63;;
65936;SDS011;52707;52.086;5.418;2023-05-02T07:41:04;15.70;;;3.00;;
65936;SDS011;52707;52.086;5.418;2023-05-02T07:43:31;10.38;;;2.45;;
65936;SDS011;52707;52.086;5.418;2023-05-02T07:45:57;22.55;;;2.63;;
65936;SDS011;52707;52.086;5.418;2023-05-02T07:48:23;18.85;;;2.70;;
65936;SDS011;52707;52.086;5.418;2023-05-02T07:50:52;13.95;;;2.78;;
65936;SDS011;52707;52.086;5.418;2023-05-02T07:53:19;14.63;;;2.58;;
65936;SDS011;52707;52.086;5.418;2023-05-02T07:55:45;15.68;;;3.15;;
65936;SDS011;52707;52.086;5.418;2023-05-02T07:58:12;11.68;;;3.10;;
65936;SDS011;52707;52.086;5.418;2023-05-02T08:00:38;13.52;;;3.58;;
65936;SDS011;52707;52.086;5.418;2023-05-02T08:03:04;6.40;;;2.08;;
65936;SDS011;52707;52.086;5.418;2023-05-02T08:05:32;11.30;;;2.70;;
65936;SDS011;52707;52.086;5.418;2023-05-02T08:07:58;12.77;;;2.63;;
65936;SDS011;52707;52.086;5.418;2023-05-02T08:10:27;9.20;;;2.33;;
65936;SDS011;52707;52.086;5.418;2023-05-02T08:12:53;9.82;;;2.72;;
65936;SDS011;52707;52.086;5.418;2023-05-02T08:15:20;9.52;;;2.28;;
65936;SDS011;52707;52.086;5.418;2023-05-02T08:17:46;28.48;;;3.05;;
65936;SDS011;52707;52.086;5.418;2023-05-02T08:20:12;14.68;;;2.65;;
65936;SDS011;52707;52.086;5.418;2023-05-02T08:22:39;18.70;;;3.13;;
65936;SDS011;52707;52.086;5.418;2023-05-02T08:25:05;9.90;;;2.58;;
65936;SDS011;52707;52.086;5.418;2023-05-02T08:27:32;12.52;;;2.85;;
65936;SDS011;52707;52.086;5.418;2023-05-02T08:30:00;14.30;;;2.38;;
65936;SDS011;52707;52.086;5.418;2023-05-02T08:32:26;15.95;;;2.88;;
65936;SDS011;52707;52.086;5.418;2023-05-02T08:34:55;13.52;;;2.63;;
65936;SDS011;52707;52.086;5.418;2023-05-02T08:37:24;9.35;;;2.47;;
65936;SDS011;52707;52.086;5.418;2023-05-02T08:39:51;9.82;;;2.38;;
65936;SDS011;52707;52.086;5.418;2023-05-02T08:42:17;11.00;;;2.53;;
65936;SDS011;52707;52.086;5.418;2023-05-02T08:44:46;7.32;;;2.15;;
65936;SDS011;52707;52.086;5.418;2023-05-02T08:47:13;11.82;;;1.90;;
65936;SDS011;52707;52.086;5.418;2023-05-02T08:49:40;9.07;;;2.13;;
65936;SDS011;52707;52.086;5.418;2023-05-02T08:52:07;5.53;;;1.95;;
65936;SDS011;52707;52.086;5.418;2023-05-02T08:54:35;11.65;;;1.50;;
65936;SDS011;52707;52.086;5.418;2023-05-02T08:57:02;11.00;;;1.85;;
65936;SDS011;52707;52.086;5.418;2023-05-02T08:59:29;5.18;;;1.27;;
65936;SDS011;52707;52.086;5.418;2023-05-02T09:01:58;9.60;;;1.88;;
65936;SDS011;52707;52.086;5.418;2023-05-02T09:04:27;4.93;;;1.57;;
65936;SDS011;52707;52.086;5.418;2023-05-02T09:06:55;7.97;;;1.60;;
65936;SDS011;52707;52.086;5.418;2023-05-02T09:09:22;9.10;;;1.55;;
65936;SDS011;52707;52.086;5.418;2023-05-02T09:11:48;6.95;;;1.70;;
65936;SDS011;52707;52.086;5.418;2023-05-02T09:14:16;8.95;;;1.88;;
65936;SDS011;52707;52.086;5.418;2023-05-02T09:16:42;7.63;;;1.70;;
65936;SDS011;52707;52.086;5.418;2023-05-02T09:19:09;10.43;;;2.72;;
65936;SDS011;52707;52.086;5.418;2023-05-02T09:21:39;8.10;;;1.75;;
65936;SDS011;52707;52.086;5.418;2023-05-02T09:24:19;4.18;;;1.77;;
65936;SDS011;52707;52.086;5.418;2023-05-02T09:26:58;6.28;;;1.52;;
65936;SDS011;52707;52.086;5.418;2023-05-02T09:29:26;6.95;;;1.75;;
65936;SDS011;52707;52.086;5.418;2023-05-02T09:31:52;6.22;;;1.75;;
65936;SDS011;52707;52.086;5.418;2023-05-02T09:34:22;6.88;;;1.73;;
65936;SDS011;52707;52.086;5.418;2023-05-02T09:36:48;6.60;;;1.50;;
65936;SDS011;52707;52.086;5.418;2023-05-02T09:39:21;15.02;;;1.73;;
65936;SDS011;52707;52.086;5.418;2023-05-02T09:41:51;13.75;;;1.98;;
65936;SDS011;52707;52.086;5.418;2023-05-02T09:44:18;5.78;;;1.50;;
65936;SDS011;52707;52.086;5.418;2023-05-02T09:49:11;5.60;;;1.58;;
65936;SDS011;52707;52.086;5.418;2023-05-02T09:51:37;7.15;;;1.48;;
65936;SDS011;52707;52.086;5.418;2023-05-02T09:54:04;4.28;;;1.48;;
65936;SDS011;52707;52.086;5.418;2023-05-02T09:56:30;10.23;;;2.00;;
65936;SDS011;52707;52.086;5.418;2023-05-02T09:59:15;6.03;;;1.63;;
65936;SDS011;52707;52.086;5.418;2023-05-02T10:01:41;10.27;;;1.90;;
65936;SDS011;52707;52.086;5.418;2023-05-02T10:04:09;6.00;;;1.48;;
65936;SDS011;52707;52.086;5.418;2023-05-02T10:06:37;9.50;;;2.08;;
65936;SDS011;52707;52.086;5.418;2023-05-02T10:09:03;5.97;;;1.67;;
65936;SDS011;52707;52.086;5.418;2023-05-02T10:11:29;7.05;;;1.83;;
65936;SDS011;52707;52.086;5.418;2023-05-02T10:13:56;8.85;;;1.85;;
65936;SDS011;52707;52.086;5.418;2023-05-02T10:16:25;7.72;;;2.00;;
65936;SDS011;52707;52.086;5.418;2023-05-02T10:19:02;13.23;;;2.47;;
65936;SDS011;52707;52.086;5.418;2023-05-02T10:21:28;7.20;;;2.08;;
65936;SDS011;52707;52.086;5.418;2023-05-02T10:23:55;7.18;;;1.75;;
65936;SDS011;52707;52.086;5.418;2023-05-02T10:26:21;9.38;;;2.03;;
65936;SDS011;52707;52.086;5.418;2023-05-02T10:28:48;7.95;;;2.08;;
65936;SDS011;52707;52.086;5.418;2023-05-02T10:31:16;5.22;;;1.75;;
65936;SDS011;52707;52.086;5.418;2023-05-02T10:33:43;6.93;;;2.17;;
65936;SDS011;52707;52.086;5.418;2023-05-02T10:36:09;10.05;;;2.00;;
65936;SDS011;52707;52.086;5.418;2023-05-02T10:38:39;6.63;;;2.00;;
65936;SDS011;52707;52.086;5.418;2023-05-02T10:41:08;8.50;;;2.10;;
65936;SDS011;52707;52.086;5.418;2023-05-02T10:43:35;10.65;;;2.30;;
65936;SDS011;52707;52.086;5.418;2023-05-02T10:46:02;8.60;;;2.45;;
65936;SDS011;52707;52.086;5.418;2023-05-02T10:51:32;7.18;;;2.10;;
65936;SDS011;52707;52.086;5.418;2023-05-02T10:54:17;6.78;;;2.03;;
65936;SDS011;52707;52.086;5.418;2023-05-02T10:59:29;6.95;;;1.85;;
65936;SDS011;52707;52.086;5.418;2023-05-02T11:01:56;9.60;;;1.98;;
65936;SDS011;52707;52.086;5.418;2023-05-02T11:04:23;9.50;;;2.33;;
65936;SDS011;52707;52.086;5.418;2023-05-02T11:11:48;7.35;;;2.30;;
65936;SDS011;52707;52.086;5.418;2023-05-02T11:17:04;4.90;;;2.10;;
65936;SDS011;52707;52.086;5.418;2023-05-02T11:24:44;10.90;;;1.98;;
65936;SDS011;52707;52.086;5.418;2023-05-02T11:29:55;14.38;;;2.45;;
65936;SDS011;52707;52.086;5.418;2023-05-02T11:32:22;11.07;;;2.90;;
65936;SDS011;52707;52.086;5.418;2023-05-02T11:34:48;7.80;;;2.40;;
65936;SDS011;52707;52.086;5.418;2023-05-02T11:37:18;8.73;;;2.30;;
65936;SDS011;52707;52.086;5.418;2023-05-02T11:39:44;8.40;;;2.15;;
65936;SDS011;52707;52.086;5.418;2023-05-02T11:42:32;5.47;;;2.00;;
65936;SDS011;52707;52.086;5.418;2023-05-02T11:44:59;18.08;;;3.10;;
65936;SDS011;52707;52.086;5.418;2023-05-02T11:47:26;10.70;;;2.60;;
65936;SDS011;52707;52.086;5.418;2023-05-02T11:49:54;8.93;;;2.13;;
65936;SDS011;52707;52.086;5.418;2023-05-02T11:52:21;10.60;;;2.80;;
65936;SDS011;52707;52.086;5.418;2023-05-02T11:54:48;11.40;;;2.75;;
65936;SDS011;52707;52.086;5.418;2023-05-02T11:57:14;9.68;;;2.42;;
65936;SDS011;52707;52.086;5.418;2023-05-02T11:59:54;16.38;;;3.08;;
65936;SDS011;52707;52.086;5.418;2023-05-02T12:02:34;6.57;;;2.33;;
65936;SDS011;52707;52.086;5.418;2023-05-02T12:05:01;15.02;;;2.95;;
65936;SDS011;52707;52.086;5.418;2023-05-02T12:10:08;10.50;;;2.58;;
65936;SDS011;52707;52.086;5.418;2023-05-02T12:12:35;12.93;;;2.60;;
65936;SDS011;52707;52.086;5.418;2023-05-02T12:15:04;13.15;;;2.47;;
65936;SDS011;52707;52.086;5.418;2023-05-02T12:17:31;12.10;;;2.60;;
65936;SDS011;52707;52.086;5.418;2023-05-02T12:19:58;5.03;;;2.50;;
65936;SDS011;52707;52.086;5.418;2023-05-02T12:22:25;13.82;;;3.58;;
65936;SDS011;52707;52.086;5.418;2023-05-02T12:24:51;12.43;;;3.58;;
65936;SDS011;52707;52.086;5.418;2023-05-02T12:27:20;9.75;;;2.90;;
65936;SDS011;52707;52.086;5.418;2023-05-02T12:29:47;10.93;;;3.38;;
65936;SDS011;52707;52.086;5.418;2023-05-02T12:32:13;16.33;;;3.67;;
65936;SDS011;52707;52.086;5.418;2023-05-02T12:34:40;15.85;;;3.58;;
65936;SDS011;52707;52.086;5.418;2023-05-02T12:37:07;17.55;;;3.10;;
65936;SDS011;52707;52.086;5.418;2023-05-02T12:39:37;18.17;;;2.85;;
65936;SDS011;52707;52.086;5.418;2023-05-02T12:42:13;6.90;;;2.53;;
65936;SDS011;52707;52.086;5.418;2023-05-02T12:44:43;14.23;;;2.72;;
65936;SDS011;52707;52.086;5.418;2023-05-02T12:47:10;13.85;;;3.00;;
65936;SDS011;52707;52.086;5.418;2023-05-02T12:55:21;8.32;;;2.42;;
65936;SDS011;52707;52.086;5.418;2023-05-02T12:57:49;6.35;;;2.30;;
65936;SDS011;52707;52.086;5.418;2023-05-02T13:00:16;6.85;;;2.65;;
65936;SDS011;52707;52.086;5.418;2023-05-02T13:02:43;16.95;;;3.10;;
65936;SDS011;52707;52.086;5.418;2023-05-02T13:05:16;9.32;;;3.15;;
65936;SDS011;52707;52.086;5.418;2023-05-02T13:07:42;12.75;;;2.70;;
65936;SDS011;52707;52.086;5.418;2023-05-02T13:10:09;9.27;;;2.47;;
65936;SDS011;52707;52.086;5.418;2023-05-02T13:12:36;9.52;;;2.40;;
65936;SDS011;52707;52.086;5.418;2023-05-02T13:15:03;10.20;;;2.45;;
65936;SDS011;52707;52.086;5.418;2023-05-02T13:17:30;14.00;;;2.40;;
65936;SDS011;52707;52.086;5.418;2023-05-02T13:19:56;8.40;;;1.80;;
65936;SDS011;52707;52.086;5.418;2023-05-02T13:24:53;10.30;;;2.70;;
65936;SDS011;52707;52.086;5.418;2023-05-02T13:27:22;12.65;;;2.13;;
65936;SDS011;52707;52.086;5.418;2023-05-02T13:29:49;5.70;;;2.25;;
65936;SDS011;52707;52.086;5.418;2023-05-02T13:32:15;11.35;;;2.60;;
65936;SDS011;52707;52.086;5.418;2023-05-02T13:34:41;13.15;;;2.83;;
65936;SDS011;52707;52.086;5.418;2023-05-02T13:37:08;14.88;;;2.83;;
65936;SDS011;52707;52.086;5.418;2023-05-02T13:39:34;8.00;;;2.38;;
65936;SDS011;52707;52.086;5.418;2023-05-02T13:42:01;9.05;;;2.72;;
65936;SDS011;52707;52.086;5.418;2023-05-02T13:46:57;6.15;;;2.00;;
65936;SDS011;52707;52.086;5.418;2023-05-02T13:49:24;6.85;;;1.85;;
65936;SDS011;52707;52.086;5.418;2023-05-02T13:51:50;10.38;;;2.25;;
65936;SDS011;52707;52.086;5.418;2023-05-02T13:54:16;13.35;;;3.15;;
65936;SDS011;52707;52.086;5.418;2023-05-02T13:56:43;8.35;;;1.88;;
65936;SDS011;52707;52.086;5.418;2023-05-02T13:59:09;8.52;;;2.10;;
65936;SDS011;52707;52.086;5.418;2023-05-02T14:01:36;13.50;;;2.10;;
65936;SDS011;52707;52.086;5.418;2023-05-02T14:04:06;10.10;;;2.28;;
65936;SDS011;52707;52.086;5.418;2023-05-02T14:06:34;8.85;;;2.03;;
65936;SDS011;52707;52.086;5.418;2023-05-02T14:09:00;8.05;;;2.38;;
65936;SDS011;52707;52.086;5.418;2023-05-02T14:11:27;7.53;;;2.00;;
65936;SDS011;52707;52.086;5.418;2023-05-02T14:13:53;12.27;;;2.60;;
65936;SDS011;52707;52.086;5.418;2023-05-02T14:16:22;7.75;;;2.13;;
65936;SDS011;52707;52.086;5.418;2023-05-02T14:18:49;10.38;;;2.30;;
65936;SDS011;52707;52.086;5.418;2023-05-02T14:21:15;8.48;;;2.22;;
65936;SDS011;52707;52.086;5.418;2023-05-02T14:23:41;7.68;;;2.13;;
65936;SDS011;52707;52.086;5.418;2023-05-02T14:26:08;10.75;;;2.00;;
65936;SDS011;52707;52.086;5.418;2023-05-02T14:28:34;9.25;;;2.10;;
65936;SDS011;52707;52.086;5.418;2023-05-02T14:31:04;9.27;;;1.88;;
65936;SDS011;52707;52.086;5.418;2023-05-02T14:33:30;6.20;;;1.73;;
65936;SDS011;52707;52.086;5.418;2023-05-02T14:35:56;8.50;;;2.17;;
65936;SDS011;52707;52.086;5.418;2023-05-02T14:38:23;6.53;;;2.30;;
65936;SDS011;52707;52.086;5.418;2023-05-02T14:40:49;5.82;;;2.10;;
65936;SDS011;52707;52.086;5.418;2023-05-02T14:43:15;8.63;;;2.25;;
65936;SDS011;52707;52.086;5.418;2023-05-02T14:45:42;14.05;;;3.05;;
65936;SDS011;52707;52.086;5.418;2023-05-02T14:48:08;7.88;;;1.90;;
65936;SDS011;52707;52.086;5.418;2023-05-02T14:50:36;5.18;;;1.98;;
65936;SDS011;52707;52.086;5.418;2023-05-02T14:53:04;6.47;;;1.83;;
65936;SDS011;52707;52.086;5.418;2023-05-02T14:55:34;5.32;;;2.15;;
65936;SDS011;52707;52.086;5.418;2023-05-02T14:58:01;8.13;;;2.25;;
65936;SDS011;52707;52.086;5.418;2023-05-02T15:00:27;6.32;;;1.65;;
65936;SDS011;52707;52.086;5.418;2023-05-02T15:02:53;7.40;;;1.80;;
65936;SDS011;52707;52.086;5.418;2023-05-02T15:05:20;9.45;;;1.67;;
65936;SDS011;52707;52.086;5.418;2023-05-02T15:07:46;8.35;;;2.22;;
65936;SDS011;52707;52.086;5.418;2023-05-02T15:10:13;8.50;;;2.40;;
65936;SDS011;52707;52.086;5.418;2023-05-02T15:12:39;8.48;;;2.08;;
65936;SDS011;52707;52.086;5.418;2023-05-02T15:15:05;9.07;;;2.03;;
65936;SDS011;52707;52.086;5.418;2023-05-02T15:17:34;8.27;;;2.45;;
65936;SDS011;52707;52.086;5.418;2023-05-02T15:20:00;5.38;;;2.00;;
65936;SDS011;52707;52.086;5.418;2023-05-02T15:22:27;21.75;;;2.35;;
65936;SDS011;52707;52.086;5.418;2023-05-02T15:24:53;9.23;;;2.25;;
65936;SDS011;52707;52.086;5.418;2023-05-02T15:27:20;3.63;;;1.90;;